createdAt,value
2022-08-30T00:02:13.508Z,100024.19
2022-08-30T00:04:40.982Z,100023.81
2022-08-30T00:07:08.165Z,100023.63
2022-08-30T00:09:35.385Z,100025.16
2022-08-30T00:12:04.442Z,100024.03
2022-08-30T00:14:31.631Z,100021.50
2022-08-30T00:16:58.765Z,100022.09
2022-08-30T00:19:26.294Z,100028.62
2022-08-30T00:21:53.511Z,100034.28
2022-08-30T00:24:20.682Z,100019.75
2022-08-30T00:26:48.407Z,100024.66
2022-08-30T00:29:15.571Z,100026.28
2022-08-30T00:31:42.747Z,100020.75
2022-08-30T00:34:10.155Z,100025.41
2022-08-30T00:36:37.577Z,100022.81
2022-08-30T00:39:05.491Z,100025.97
2022-08-30T00:41:34.389Z,100027.63
2022-08-30T00:44:01.767Z,100030.81
2022-08-30T00:46:29.203Z,100030.16
2022-08-30T00:48:56.650Z,100031.81
2022-08-30T00:51:24.143Z,100033.78
2022-08-30T00:53:54.877Z,100029.09
2022-08-30T00:56:22.904Z,100032.81
2022-08-30T00:58:50.978Z,100035.44
2022-08-30T01:01:18.230Z,100026.94
2022-08-30T01:03:45.854Z,100027.75
2022-08-30T01:06:15.535Z,100030.66
2022-08-30T01:08:43.169Z,100025.91
2022-08-30T01:11:12.019Z,100022.56
2022-08-30T01:13:39.177Z,100023.28
2022-08-30T01:16:06.462Z,100026.41
2022-08-30T01:18:35.499Z,100016.53
2022-08-30T01:21:29.206Z,100017.03
2022-08-30T01:23:58.774Z,100016.53
2022-08-30T01:26:26.456Z,100023.94
2022-08-30T01:28:55.603Z,100028.56
2022-08-30T01:31:23.282Z,100017.28
2022-08-30T01:33:51.093Z,100018.12
2022-08-30T01:36:18.640Z,100021.16
2022-08-30T01:38:47.795Z,100015.81
2022-08-30T01:41:19.635Z,100015.72
2022-08-30T01:43:47.287Z,100018.34
2022-08-30T01:46:15.266Z,100019.47
2022-08-30T01:48:42.716Z,100014.06
2022-08-30T01:51:22.647Z,100020.25
2022-08-30T01:53:51.105Z,100019.47
2022-08-30T01:56:18.507Z,100005.56
2022-08-30T01:58:46.028Z,100013.53
2022-08-30T02:01:14.007Z,100006.06
2022-08-30T02:03:43.157Z,100006.06
2022-08-30T02:06:11.676Z,100007.66
2022-08-30T02:08:40.275Z,100008.25
2022-08-30T02:11:08.316Z,100011.47
2022-08-30T02:13:37.656Z,100006.16
2022-08-30T02:16:06.035Z,100004.69
2022-08-30T02:18:34.991Z,100002.94
2022-08-30T02:21:02.205Z,100003.72
2022-08-30T02:23:29.374Z,99996.56
2022-08-30T02:25:56.789Z,100006.53
2022-08-30T02:28:25.735Z,99998.84
2022-08-30T02:30:53.098Z,100009.03
2022-08-30T02:33:20.643Z,100003.75
2022-08-30T02:35:47.818Z,100003.41
2022-08-30T02:38:14.962Z,100014.22
2022-08-30T02:40:42.422Z,100016.06
2022-08-30T02:43:09.694Z,100014.00
2022-08-30T02:45:37.188Z,100010.75
2022-08-30T02:48:04.717Z,100016.78
2022-08-30T02:50:32.854Z,100012.69
2022-08-30T02:53:00.030Z,100007.41
2022-08-30T02:55:27.866Z,100011.84
2022-08-30T02:57:55.043Z,100011.44
2022-08-30T03:00:22.227Z,100008.94
2022-08-30T03:02:49.766Z,100003.91
2022-08-30T03:05:17.522Z,100009.84
2022-08-30T03:07:45.809Z,100007.41
2022-08-30T03:10:13.970Z,100008.62
2022-08-30T03:12:41.729Z,100003.37
2022-08-30T03:15:10.064Z,100005.47
2022-08-30T03:17:37.514Z,100012.69
2022-08-30T03:20:05.398Z,100011.97
2022-08-30T03:22:32.541Z,100016.28
2022-08-30T03:25:01.452Z,100020.97
2022-08-30T03:27:28.915Z,100023.28
2022-08-30T03:29:56.354Z,100021.06
2022-08-30T03:32:24.147Z,100025.34
2022-08-30T03:34:51.303Z,100026.56
2022-08-30T03:37:18.487Z,100042.09
2022-08-30T03:39:46.222Z,100035.62
2022-08-30T03:42:13.433Z,100037.03
2022-08-30T03:44:40.672Z,100039.75
2022-08-30T03:47:08.924Z,100045.16
2022-08-30T03:49:36.198Z,100044.75
2022-08-30T03:52:03.864Z,100047.94
2022-08-30T03:54:31.324Z,100043.97
2022-08-30T03:56:58.645Z,100046.72
2022-08-30T03:59:25.810Z,100042.75
2022-08-30T04:01:53.316Z,100050.87
2022-08-30T04:04:21.280Z,100042.19
2022-08-30T04:06:48.935Z,100047.81
2022-08-30T04:09:16.283Z,100047.28
2022-08-30T04:11:43.734Z,100049.25
2022-08-30T04:14:10.889Z,100049.28
2022-08-30T04:16:38.125Z,100061.53
2022-08-30T04:19:05.583Z,100069.78
2022-08-30T04:21:32.800Z,100068.97
2022-08-30T04:24:02.301Z,100072.22
2022-08-30T04:26:29.788Z,100077.06
2022-08-30T04:28:56.967Z,100083.00
2022-08-30T04:31:24.286Z,100090.00
2022-08-30T04:33:51.755Z,100092.84
2022-08-30T04:36:19.069Z,100096.38
2022-08-30T04:38:46.908Z,100096.50
2022-08-30T04:41:16.477Z,100102.91
2022-08-30T04:43:44.685Z,100108.94
2022-08-30T04:46:13.884Z,100112.00
2022-08-30T04:48:41.899Z,100116.25
2022-08-30T04:51:10.253Z,100106.97
2022-08-30T04:53:37.413Z,100114.91
2022-08-30T04:56:11.777Z,100121.94
2022-08-30T04:58:38.932Z,100116.38
2022-08-30T05:01:11.301Z,100116.44
2022-08-30T05:03:39.412Z,100126.28
2022-08-30T05:06:08.001Z,100119.50
2022-08-30T05:08:35.182Z,100118.53
2022-08-30T05:11:03.859Z,100125.56
2022-08-30T05:13:35.547Z,100132.34
2022-08-30T05:16:06.089Z,100135.91
2022-08-30T05:18:34.066Z,100133.66
2022-08-30T05:21:17.622Z,100130.22
2022-08-30T05:23:45.291Z,100131.31
2022-08-30T05:26:13.958Z,100128.44
2022-08-30T05:28:41.165Z,100129.06
2022-08-30T05:31:18.879Z,100130.75
2022-08-30T05:33:46.465Z,100130.47
2022-08-30T05:36:14.699Z,100122.63
2022-08-30T05:38:42.335Z,100134.59
2022-08-30T05:41:11.007Z,100129.31
2022-08-30T05:43:38.893Z,100129.31
2022-08-30T05:46:10.685Z,100130.09
2022-08-30T05:48:38.295Z,100124.53
2022-08-30T05:51:11.415Z,100132.78
2022-08-30T05:53:39.408Z,100129.09
2022-08-30T05:56:08.745Z,100138.87
2022-08-30T05:58:36.530Z,100133.97
2022-08-30T06:01:03.923Z,100136.41
2022-08-30T06:03:32.971Z,100139.06
2022-08-30T06:06:00.539Z,100139.44
2022-08-30T06:08:28.215Z,100131.66
2022-08-30T06:10:55.706Z,100142.09
2022-08-30T06:13:23.287Z,100135.84
2022-08-30T06:15:53.080Z,100139.91
2022-08-30T06:18:21.637Z,100143.34
2022-08-30T06:20:55.976Z,100146.94
2022-08-30T06:23:23.767Z,100150.28
2022-08-30T06:25:51.710Z,100146.56
2022-08-30T06:28:19.336Z,100146.19
2022-08-30T06:30:47.445Z,100144.78
2022-08-30T06:33:14.615Z,100147.84
2022-08-30T06:35:58.482Z,100143.78
2022-08-30T06:38:27.915Z,100149.28
2022-08-30T06:40:55.293Z,100142.66
2022-08-30T06:43:22.636Z,100146.56
2022-08-30T06:45:51.355Z,100147.69
2022-08-30T06:48:18.789Z,100151.66
2022-08-30T06:50:46.094Z,100144.66
2022-08-30T06:53:13.977Z,100136.13
2022-08-30T06:55:42.039Z,100141.53
2022-08-30T06:58:09.857Z,100145.66
2022-08-30T07:00:37.400Z,100149.59
2022-08-30T07:03:05.301Z,100157.56
2022-08-30T07:05:32.682Z,100153.50
2022-08-30T07:08:00.114Z,100159.00
2022-08-30T07:10:27.335Z,100164.97
2022-08-30T07:12:54.504Z,100150.94
2022-08-30T07:15:23.031Z,100166.72
2022-08-30T07:18:09.588Z,100168.12
2022-08-30T07:20:40.110Z,100170.16
2022-08-30T07:23:08.855Z,100165.03
2022-08-30T07:25:39.488Z,100167.38
2022-08-30T07:28:08.072Z,100165.00
2022-08-30T07:30:35.484Z,100171.91
2022-08-30T07:33:02.866Z,100175.81
2022-08-30T07:35:31.485Z,100170.97
2022-08-30T07:37:58.896Z,100173.94
2022-08-30T07:40:26.430Z,100176.13
2022-08-30T07:42:53.980Z,100169.37
2022-08-30T07:45:21.336Z,100174.69
2022-08-30T07:47:48.535Z,100166.81
2022-08-30T07:50:16.055Z,100168.66
2022-08-30T07:52:43.242Z,100172.69
2022-08-30T07:55:10.405Z,100176.13
2022-08-30T07:57:37.881Z,100171.72
2022-08-30T08:00:05.678Z,100168.28
2022-08-30T08:02:40.815Z,100176.19
2022-08-30T08:05:10.310Z,100174.41
2022-08-30T08:07:41.203Z,100169.50
2022-08-30T08:10:09.182Z,100173.44
2022-08-30T08:12:36.592Z,100172.63
2022-08-30T08:15:06.777Z,100169.69
2022-08-30T08:17:36.457Z,100170.56
2022-08-30T08:20:04.200Z,100180.28
2022-08-30T08:22:31.389Z,100172.66
2022-08-30T08:24:58.885Z,100175.19
2022-08-30T08:27:26.100Z,100175.00
2022-08-30T08:29:53.301Z,100176.03
2022-08-30T08:32:20.726Z,100179.75
2022-08-30T08:34:47.893Z,100174.97
2022-08-30T08:37:15.100Z,100181.28
2022-08-30T08:39:42.597Z,100179.31
2022-08-30T08:42:15.889Z,100168.91
2022-08-30T08:44:58.464Z,100166.16
2022-08-30T08:47:28.188Z,100166.50
2022-08-30T08:49:56.453Z,100179.50
2022-08-30T08:52:49.719Z,100173.97
2022-08-30T08:55:19.258Z,100174.12
2022-08-30T08:57:46.875Z,100167.53
2022-08-30T09:00:15.240Z,100171.56
2022-08-30T09:02:46.924Z,100172.50
2022-08-30T09:05:18.776Z,100173.44
2022-08-30T09:07:50.259Z,100167.72
2022-08-30T09:10:22.968Z,100170.59
2022-08-30T09:13:00.029Z,100158.31
2022-08-30T09:15:30.139Z,100165.97
2022-08-30T09:18:02.598Z,100161.63
2022-08-30T09:20:33.677Z,100154.03
2022-08-30T09:23:12.119Z,100152.47
2022-08-30T09:25:41.775Z,100156.28
2022-08-30T09:28:10.975Z,100155.22
2022-08-30T09:30:38.403Z,100149.31
2022-08-30T09:33:07.704Z,100151.31
2022-08-30T09:35:36.798Z,100140.94
2022-08-30T09:38:11.641Z,100145.41
2022-08-30T09:40:42.190Z,100142.16
2022-08-30T09:43:12.014Z,100141.16
2022-08-30T09:45:42.952Z,100140.97
2022-08-30T09:48:28.878Z,100130.28
2022-08-30T09:51:17.489Z,100133.66
2022-08-30T09:54:19.225Z,100136.50
2022-08-30T09:56:46.325Z,100133.28
2022-08-30T09:59:34.366Z,100127.78
2022-08-30T10:02:05.407Z,100122.37
2022-08-30T10:04:40.550Z,100121.72
2022-08-30T10:07:11.116Z,100115.97
2022-08-30T10:09:42.083Z,100117.16
2022-08-30T10:12:15.422Z,100113.72
2022-08-30T10:14:56.832Z,100113.72
2022-08-30T10:17:41.343Z,100113.94
2022-08-30T10:20:21.699Z,100112.94
2022-08-30T10:23:00.913Z,100107.44
2022-08-30T10:25:28.273Z,100106.66
2022-08-30T10:27:58.410Z,100108.00
2022-08-30T10:30:25.592Z,100102.81
2022-08-30T10:33:05.293Z,100112.25
2022-08-30T10:35:38.681Z,100101.00
2022-08-30T10:38:08.738Z,100101.22
2022-08-30T10:40:55.325Z,100093.88
2022-08-30T10:43:23.150Z,100098.44
2022-08-30T10:45:51.327Z,100085.91
2022-08-30T10:48:29.786Z,100085.88
2022-08-30T10:50:59.237Z,100087.44
2022-08-30T10:53:33.154Z,100085.91
2022-08-30T10:56:00.511Z,100082.75
2022-08-30T10:58:28.322Z,100071.88
2022-08-30T11:01:04.651Z,100072.78
2022-08-30T11:03:51.895Z,100069.31
2022-08-30T11:06:27.384Z,100060.13
2022-08-30T11:09:01.215Z,100062.69
2022-08-30T11:11:47.059Z,100067.44
2022-08-30T11:14:16.820Z,100072.47
2022-08-30T11:16:44.820Z,100063.78
2022-08-30T11:19:13.863Z,100064.63
2022-08-30T11:21:41.986Z,100053.13
2022-08-30T11:24:11.717Z,100052.59
2022-08-30T11:26:45.263Z,100055.50
2022-08-30T11:29:31.716Z,100051.34
2022-08-30T11:32:00.095Z,100044.50
2022-08-30T11:34:48.415Z,100040.87
2022-08-30T11:37:33.869Z,100038.66
2022-08-30T11:40:04.192Z,100038.66
2022-08-30T11:42:50.658Z,100031.44
2022-08-30T11:45:26.815Z,100042.00
2022-08-30T11:47:56.527Z,100031.84
2022-08-30T11:50:29.326Z,100024.63
2022-08-30T11:52:59.268Z,100022.91
2022-08-30T11:55:45.871Z,100022.16
2022-08-30T11:58:27.976Z,100028.84
2022-08-30T12:01:50.665Z,100019.19
2022-08-30T12:04:19.755Z,100008.03
2022-08-30T12:06:47.003Z,100000.56
2022-08-30T12:09:26.357Z,100005.28
2022-08-30T12:12:10.507Z,100007.72
2022-08-30T12:14:47.511Z,100002.81
2022-08-30T12:17:36.889Z,100003.56
2022-08-30T12:20:04.939Z,99997.22
2022-08-30T12:22:37.838Z,99991.97
2022-08-30T12:25:13.576Z,99984.66
2022-08-30T12:27:41.045Z,99988.78
2022-08-30T12:30:10.947Z,99984.28
2022-08-30T12:32:47.498Z,99989.31
2022-08-30T12:35:19.569Z,99982.59
2022-08-30T12:37:55.556Z,99978.59
2022-08-30T12:40:23.342Z,99973.22
2022-08-30T12:42:51.279Z,99969.44
2022-08-30T12:45:20.964Z,99965.19
2022-08-30T12:47:48.638Z,99955.09
2022-08-30T12:50:17.327Z,99953.47
2022-08-30T12:52:48.591Z,99948.25
2022-08-30T12:55:19.702Z,99946.13
2022-08-30T12:57:59.824Z,99948.44
2022-08-30T13:00:32.751Z,99935.62
2022-08-30T13:03:02.264Z,99940.72
2022-08-30T13:05:32.275Z,99943.13
2022-08-30T13:08:11.743Z,99939.19
2022-08-30T13:10:58.751Z,99935.13
2022-08-30T13:13:29.309Z,99930.09
2022-08-30T13:15:56.967Z,99922.69
2022-08-30T13:18:30.068Z,99926.75
2022-08-30T13:21:11.950Z,99929.53
2022-08-30T13:23:39.855Z,99919.81
2022-08-30T13:26:07.998Z,99913.72
2022-08-30T13:28:47.953Z,99920.22
2022-08-30T13:31:16.478Z,99914.09
2022-08-30T13:33:46.496Z,99917.44
2022-08-30T13:36:14.315Z,99910.41
2022-08-30T13:38:41.909Z,99902.19
2022-08-30T13:41:10.837Z,99906.56
2022-08-30T13:46:28.134Z,99897.59
2022-08-30T13:48:58.909Z,99893.03
2022-08-30T13:51:27.077Z,99897.47
2022-08-30T13:53:54.804Z,99896.22
2022-08-30T13:56:24.747Z,99888.59
2022-08-30T13:58:52.615Z,99891.00
2022-08-30T14:01:20.128Z,99888.56
2022-08-30T14:06:35.210Z,99881.63
2022-08-30T14:09:05.058Z,99883.22
2022-08-30T14:11:32.641Z,99872.53
2022-08-30T14:14:26.635Z,99867.53
2022-08-30T14:16:48.935Z,99870.56
2022-08-30T14:19:17.218Z,99870.87
2022-08-30T14:21:48.886Z,99871.13
2022-08-30T14:24:20.131Z,99862.63
2022-08-30T14:26:49.597Z,99863.13
2022-08-30T14:29:21.418Z,99862.16
2022-08-30T14:31:48.934Z,99865.81
2022-08-30T14:34:16.669Z,99862.41
2022-08-30T14:36:44.501Z,99855.72
2022-08-30T14:39:14.572Z,99859.25
2022-08-30T14:41:44.083Z,99859.16
2022-08-30T14:44:12.410Z,99864.53
2022-08-30T14:46:39.811Z,99858.31
2022-08-30T14:49:10.253Z,99860.16
2022-08-30T14:51:38.818Z,99857.09
2022-08-30T14:54:06.082Z,99857.28
2022-08-30T14:56:33.583Z,99862.09
2022-08-30T14:59:03.027Z,99856.91
2022-08-30T15:01:31.359Z,99855.87
2022-08-30T15:03:59.488Z,99857.28
2022-08-30T15:06:27.790Z,99847.75
2022-08-30T15:08:55.383Z,99848.28
2022-08-30T15:11:23.507Z,99858.75
2022-08-30T15:13:52.909Z,99854.69
2022-08-30T15:16:25.279Z,99846.78
2022-08-30T15:18:52.918Z,99848.72
2022-08-30T15:21:30.725Z,99846.06
2022-08-30T15:23:58.525Z,99850.88
2022-08-30T15:26:26.367Z,99845.75
2022-08-30T15:28:54.935Z,99844.03
2022-08-30T15:31:23.276Z,99841.03
2022-08-30T15:33:50.514Z,99845.97
2022-08-30T15:36:17.925Z,99843.44
2022-08-30T15:38:45.604Z,99845.72
2022-08-30T15:41:12.925Z,99847.66
2022-08-30T15:43:41.441Z,99841.66
2022-08-30T15:46:20.318Z,99844.25
2022-08-30T15:48:47.679Z,99845.53
2022-08-30T15:51:16.708Z,99840.37
2022-08-30T15:53:44.479Z,99843.81
2022-08-30T15:56:11.926Z,99837.19
2022-08-30T15:58:39.834Z,99842.22
2022-08-30T16:01:07.771Z,99846.50
2022-08-30T16:03:35.725Z,99845.09
2022-08-30T16:06:07.788Z,99842.63
2022-08-30T16:08:35.287Z,99841.22
2022-08-30T16:11:02.479Z,99838.88
2022-08-30T16:13:29.639Z,99843.25
2022-08-30T16:15:59.815Z,99837.28
2022-08-30T16:18:27.069Z,99839.31
2022-08-30T16:21:09.667Z,99828.59
2022-08-30T16:23:37.843Z,99831.59
2022-08-30T16:26:05.315Z,99831.78
2022-08-30T16:28:32.863Z,99835.00
2022-08-30T16:31:00.925Z,99835.38
2022-08-30T16:33:33.293Z,99830.03
2022-08-30T16:36:01.348Z,99830.44
2022-08-30T16:38:28.625Z,99832.81
2022-08-30T16:40:56.570Z,99826.63
2022-08-30T16:43:25.322Z,99834.50
2022-08-30T16:45:53.810Z,99830.25
2022-08-30T16:48:21.251Z,99834.94
2022-08-30T16:50:48.776Z,99834.28
2022-08-30T16:53:16.142Z,99835.09
2022-08-30T16:55:43.400Z,99832.50
2022-08-30T16:58:13.840Z,99828.03
2022-08-30T17:00:47.577Z,99834.22
2022-08-30T17:03:15.626Z,99842.38
2022-08-30T17:05:44.874Z,99840.94
2022-08-30T17:08:12.224Z,99841.47
2022-08-30T17:10:43.817Z,99843.41
2022-08-30T17:13:17.139Z,99851.25
2022-08-30T17:15:45.957Z,99847.78
2022-08-30T17:18:13.520Z,99851.22
2022-08-30T17:20:41.423Z,99860.34
2022-08-30T17:23:12.021Z,99847.41
2022-08-30T17:25:40.082Z,99858.69
2022-08-30T17:28:08.527Z,99853.53
2022-08-30T17:30:36.357Z,99858.00
2022-08-30T17:33:04.629Z,99863.25
2022-08-30T17:35:31.881Z,99864.41
2022-08-30T17:37:59.437Z,99864.63
2022-08-30T17:40:26.696Z,99869.94
2022-08-30T17:42:53.908Z,99875.28
2022-08-30T17:45:21.643Z,99882.72
2022-08-30T17:47:49.320Z,99888.38
2022-08-30T17:50:16.790Z,99886.16
2022-08-30T17:52:47.117Z,99884.09
2022-08-30T17:55:14.263Z,99897.34
2022-08-30T17:57:42.384Z,99897.78
2022-08-30T18:00:11.838Z,99892.63
2022-08-30T18:02:43.266Z,99899.50
2022-08-30T18:05:10.503Z,99901.94
2022-08-30T18:07:37.891Z,99907.75
2022-08-30T18:10:06.313Z,99904.47
2022-08-30T18:15:24.034Z,99908.47
2022-08-30T18:17:51.877Z,99910.19
2022-08-30T18:20:19.656Z,99920.41
2022-08-30T18:22:49.792Z,99915.63
2022-08-30T18:25:17.574Z,99915.13
2022-08-30T18:27:45.795Z,99925.09
2022-08-30T18:30:31.159Z,99924.59
2022-08-30T18:33:01.225Z,99929.56
2022-08-30T18:35:28.699Z,99929.03
2022-08-30T18:37:58.282Z,99935.88
2022-08-30T18:40:26.203Z,99939.16
2022-08-30T18:42:53.759Z,99932.66
2022-08-30T18:45:23.059Z,99938.81
2022-08-30T18:47:50.477Z,99943.47
2022-08-30T18:50:19.242Z,99937.97
2022-08-30T18:52:47.643Z,99943.78
2022-08-30T18:55:15.580Z,99940.00
2022-08-30T18:57:44.719Z,99938.63
2022-08-30T19:00:14.919Z,99941.63
2022-08-30T19:02:43.558Z,99931.78
2022-08-30T19:05:11.561Z,99932.09
2022-08-30T19:07:40.587Z,99940.66
2022-08-30T19:10:08.251Z,99938.41
2022-08-30T19:12:40.232Z,99943.06
2022-08-30T19:15:11.718Z,99938.88
2022-08-30T19:17:41.581Z,99938.44
2022-08-30T19:20:10.122Z,99944.50
2022-08-30T19:22:56.645Z,99947.25
2022-08-30T19:25:25.624Z,99937.09
2022-08-30T19:27:53.101Z,99936.72
2022-08-30T19:30:24.043Z,99944.38
2022-08-30T19:32:56.557Z,99936.81
2022-08-30T19:35:25.181Z,99944.25
2022-08-30T19:37:52.463Z,99941.84
2022-08-30T19:40:20.654Z,99945.44
2022-08-30T19:42:48.107Z,99943.13
2022-08-30T19:45:18.112Z,99943.72
2022-08-30T19:47:46.631Z,99934.56
2022-08-30T19:50:14.535Z,99937.63
2022-08-30T19:52:41.785Z,99937.47
2022-08-30T19:55:09.770Z,99940.91
2022-08-30T19:57:36.942Z,99932.59
2022-08-30T20:00:11.103Z,99936.06
2022-08-30T20:02:39.150Z,99945.13
2022-08-30T20:05:06.913Z,99947.28
2022-08-30T20:07:39.164Z,99953.69
2022-08-30T20:10:11.275Z,99947.56
2022-08-30T20:12:39.929Z,99953.03
2022-08-30T20:15:14.741Z,99949.72
2022-08-30T20:18:02.731Z,99943.25
2022-08-30T20:20:30.590Z,99951.75
2022-08-30T20:22:57.851Z,99950.31
2022-08-30T20:24:26.633Z,99909.37
2022-08-30T20:25:25.057Z,99939.56
2022-08-30T20:27:52.637Z,99934.97
2022-08-30T20:30:19.903Z,99924.75
2022-08-30T20:32:47.181Z,99925.91
2022-08-30T20:35:15.582Z,99932.31
2022-08-30T20:37:43.277Z,99924.25
2022-08-30T20:40:14.993Z,99925.63
2022-08-30T20:42:45.550Z,99924.63
2022-08-30T20:45:16.631Z,99925.06
2022-08-30T20:47:44.355Z,99928.81
2022-08-30T20:50:15.590Z,99927.06
2022-08-30T20:52:42.843Z,99929.09
2022-08-30T20:55:10.717Z,99927.06
2022-08-30T20:57:38.204Z,99932.06
2022-08-30T21:00:10.930Z,99933.31
2022-08-30T21:02:46.374Z,99930.41
2022-08-30T21:05:15.450Z,99928.00
2022-08-30T21:07:43.386Z,99922.00
2022-08-30T21:10:10.640Z,99925.00
2022-08-30T21:12:37.898Z,99925.50
2022-08-30T21:15:33.761Z,99929.28
2022-08-30T21:17:55.045Z,99930.44
2022-08-30T21:20:22.823Z,99929.00
2022-08-30T21:22:50.022Z,99930.41
2022-08-30T21:25:17.192Z,99928.25
2022-08-30T21:27:44.619Z,99922.75
2022-08-30T21:30:12.672Z,99924.78
2022-08-30T21:32:40.034Z,99928.38
2022-08-30T21:35:26.821Z,99930.34
2022-08-30T21:37:54.179Z,99930.03
2022-08-30T21:40:21.769Z,99944.66
2022-08-30T21:42:48.956Z,99936.97
2022-08-30T21:45:16.576Z,99946.38
2022-08-30T21:47:44.038Z,99937.56
2022-08-30T21:50:12.017Z,99940.50
2022-08-30T21:52:39.194Z,99949.56
2022-08-30T21:55:07.318Z,99945.31
2022-08-30T21:57:34.624Z,99947.31
2022-08-30T22:00:02.110Z,99948.91
2022-08-30T22:02:29.463Z,99943.00
2022-08-30T22:04:56.934Z,99948.31
2022-08-30T22:07:24.138Z,99942.38
2022-08-30T22:09:51.368Z,99946.34
2022-08-30T22:12:18.809Z,99948.44
2022-08-30T22:14:46.065Z,99947.22
2022-08-30T22:17:13.520Z,99945.84
2022-08-30T22:19:40.935Z,99942.03
2022-08-30T22:22:08.082Z,99938.94
2022-08-30T22:24:35.272Z,99940.94
2022-08-30T22:27:03.009Z,99942.56
2022-08-30T22:29:30.472Z,99943.25
2022-08-30T22:31:57.748Z,99936.75
2022-08-30T22:34:25.240Z,99935.81
2022-08-30T22:36:52.390Z,99924.56
2022-08-30T22:39:19.547Z,99929.88
2022-08-30T22:41:47.358Z,99924.94
2022-08-30T22:44:14.650Z,99923.44
2022-08-30T22:46:41.807Z,99921.97
2022-08-30T22:49:09.509Z,99921.97
2022-08-30T22:51:37.001Z,99916.31
2022-08-30T22:54:04.735Z,99907.44
2022-08-30T22:56:32.727Z,99911.97
2022-08-30T22:58:59.888Z,99910.66
2022-08-30T23:01:29.143Z,99912.84
2022-08-30T23:03:56.804Z,99906.66
2022-08-30T23:06:24.053Z,99899.56
2022-08-30T23:08:51.306Z,99899.66
2022-08-30T23:11:18.793Z,99896.19
2022-08-30T23:13:46.039Z,99899.41
2022-08-30T23:16:13.995Z,99901.84
2022-08-30T23:18:43.169Z,99909.87
2022-08-30T23:21:21.430Z,99908.28
2022-08-30T23:24:07.947Z,99919.88
2022-08-30T23:26:54.058Z,99913.31
2022-08-30T23:29:40.117Z,99913.69
2022-08-30T23:32:26.006Z,99905.97
2022-08-30T23:35:12.135Z,99908.13
2022-08-30T23:37:57.820Z,99907.47
2022-08-30T23:40:44.004Z,99903.09
2022-08-30T23:43:29.729Z,99900.75
2022-08-30T23:46:18.891Z,99904.63
2022-08-30T23:49:05.800Z,99903.47
2022-08-30T23:51:52.190Z,99903.88
2022-08-30T23:54:38.223Z,99905.88
2022-08-30T23:57:24.308Z,99904.81
